createdAt,value
2019-05-03T00:00:35.478Z,0.00
2019-05-03T00:01:35.905Z,0.00
2019-05-03T00:02:36.328Z,0.00
2019-05-03T00:03:36.757Z,0.00
2019-05-03T00:04:37.183Z,0.00
2019-05-03T00:05:37.612Z,0.00
2019-05-03T00:06:38.053Z,0.00
2019-05-03T00:07:38.476Z,0.00
2019-05-03T00:08:38.882Z,0.00
2019-05-03T00:09:39.322Z,0.00
2019-05-03T00:10:39.737Z,0.00
2019-05-03T00:11:42.087Z,0.00
2019-05-03T00:12:42.158Z,0.00
2019-05-03T00:13:41.924Z,0.00
2019-05-03T00:14:41.727Z,0.00
2019-05-03T00:15:42.897Z,0.00
2019-05-03T00:16:42.295Z,0.00
2019-05-03T00:17:42.736Z,0.00
2019-05-03T00:18:43.151Z,0.00
2019-05-03T00:19:43.571Z,0.00
2019-05-03T00:20:44.007Z,0.00
2019-05-03T00:21:44.427Z,0.00
2019-05-03T00:22:44.856Z,0.00
2019-05-03T00:23:45.287Z,0.00
2019-05-03T00:24:45.706Z,0.00
2019-05-03T00:25:46.144Z,0.00
2019-05-03T00:26:46.561Z,0.00
2019-05-03T00:27:46.984Z,0.00
2019-05-03T00:28:47.419Z,0.00
2019-05-03T00:29:47.834Z,0.00
2019-05-03T00:30:48.295Z,0.00
2019-05-03T00:31:48.707Z,0.00
2019-05-03T00:32:49.118Z,0.00
2019-05-03T00:33:51.586Z,0.00
2019-05-03T00:34:49.962Z,0.00
2019-05-03T00:35:51.952Z,0.00
2019-05-03T00:36:52.505Z,0.00
2019-05-03T00:37:52.604Z,0.00
2019-05-03T00:38:52.478Z,0.00
2019-05-03T00:39:52.363Z,0.00
2019-05-03T00:40:52.526Z,0.00
2019-05-03T00:41:52.956Z,0.00
2019-05-03T00:42:53.380Z,0.00
2019-05-03T00:43:53.816Z,0.00
2019-05-03T00:44:54.248Z,0.00
2019-05-03T00:45:54.670Z,0.00
2019-05-03T00:46:55.093Z,0.00
2019-05-03T00:47:55.509Z,0.00
2019-05-03T00:48:55.941Z,0.00
2019-05-03T00:49:56.358Z,0.00
2019-05-03T00:50:56.789Z,0.00
2019-05-03T00:51:57.241Z,0.00
2019-05-03T00:52:57.646Z,0.00
2019-05-03T00:53:58.063Z,0.00
2019-05-03T00:54:58.491Z,0.00
2019-05-03T00:55:58.916Z,0.00
2019-05-03T00:56:59.339Z,0.00
2019-05-03T00:57:59.770Z,0.00
2019-05-03T00:59:02.064Z,0.00
2019-05-03T01:00:02.056Z,0.00
2019-05-03T01:01:02.634Z,0.00
2019-05-03T01:02:02.687Z,0.00
2019-05-03T01:03:02.290Z,0.00
2019-05-03T01:04:02.321Z,0.00
2019-05-03T01:05:02.996Z,0.00
2019-05-03T01:06:03.175Z,0.00
2019-05-03T01:07:03.612Z,0.00
2019-05-03T01:08:04.023Z,0.00
2019-05-03T01:09:04.470Z,0.00
2019-05-03T01:10:04.875Z,0.00
2019-05-03T01:11:05.306Z,0.00
2019-05-03T01:12:05.730Z,0.00
2019-05-03T01:13:06.158Z,0.00
2019-05-03T01:14:06.604Z,0.00
2019-05-03T01:15:07.012Z,0.00
2019-05-03T01:16:07.433Z,0.00
2019-05-03T01:17:07.860Z,0.00
2019-05-03T01:18:08.283Z,0.00
2019-05-03T01:19:08.708Z,0.00
2019-05-03T01:20:09.174Z,0.00
2019-05-03T01:21:11.591Z,0.00
2019-05-03T01:22:11.809Z,0.00
2019-05-03T01:23:12.344Z,0.00
2019-05-03T01:24:12.290Z,0.00
2019-05-03T01:25:12.045Z,0.00
2019-05-03T01:26:11.922Z,0.00
2019-05-03T01:27:12.462Z,0.00
2019-05-03T01:28:12.540Z,0.00
2019-05-03T01:29:12.967Z,0.00
2019-05-03T01:30:13.395Z,0.00
2019-05-03T01:31:13.812Z,0.00
2019-05-03T01:32:14.262Z,0.00
2019-05-03T01:33:14.669Z,0.00
2019-05-03T01:34:15.092Z,0.00
2019-05-03T01:35:15.521Z,0.00
2019-05-03T01:36:15.944Z,0.00
2019-05-03T01:37:16.369Z,0.00
2019-05-03T01:38:19.401Z,0.00
2019-05-03T01:39:17.260Z,0.00
2019-05-03T01:40:17.644Z,0.00
2019-05-03T01:41:18.067Z,0.00
2019-05-03T01:42:18.494Z,0.00
2019-05-03T01:43:18.915Z,0.00
2019-05-03T01:44:19.343Z,0.00
2019-05-03T01:45:19.810Z,0.00
2019-05-03T01:46:20.204Z,0.00
2019-05-03T01:47:21.940Z,0.00
2019-05-03T01:48:21.680Z,0.00
2019-05-03T01:49:22.847Z,0.00
2019-05-03T01:50:22.892Z,0.00
2019-05-03T01:51:22.340Z,0.00
2019-05-03T01:52:22.769Z,0.00
2019-05-03T01:53:23.204Z,0.00
2019-05-03T01:54:23.610Z,0.00
2019-05-03T01:55:24.031Z,0.00
2019-05-03T01:56:24.463Z,0.00
2019-05-03T01:57:24.887Z,0.00
2019-05-03T01:58:25.331Z,0.00
2019-05-03T01:59:25.739Z,0.00
2019-05-03T02:00:26.197Z,0.00
2019-05-03T02:01:26.581Z,0.00
2019-05-03T02:02:27.018Z,0.00
2019-05-03T02:03:27.445Z,0.00
2019-05-03T02:04:27.851Z,0.00
2019-05-03T02:05:28.281Z,0.00
2019-05-03T02:06:28.706Z,0.00
2019-05-03T02:07:29.148Z,0.00
2019-05-03T02:08:29.560Z,0.00
2019-05-03T02:09:29.980Z,0.00
2019-05-03T02:10:32.051Z,0.00
2019-05-03T02:11:32.554Z,0.00
2019-05-03T02:12:32.179Z,0.00
2019-05-03T02:13:32.124Z,0.00
2019-05-03T02:14:32.128Z,0.00
2019-05-03T02:15:32.725Z,0.00
2019-05-03T02:16:32.952Z,0.00
2019-05-03T02:17:33.378Z,0.00
2019-05-03T02:18:33.805Z,0.00
2019-05-03T02:19:34.226Z,0.00
2019-05-03T02:20:34.669Z,0.00
2019-05-03T02:21:35.082Z,0.00
2019-05-03T02:22:35.520Z,0.00
2019-05-03T02:23:35.934Z,0.00
2019-05-03T02:24:36.355Z,0.00
2019-05-03T02:25:36.802Z,0.00
2019-05-03T02:26:37.208Z,0.00
2019-05-03T02:27:37.629Z,0.00
2019-05-03T02:28:38.089Z,0.00
2019-05-03T02:29:38.502Z,0.00
2019-05-03T02:30:38.913Z,0.00
2019-05-03T02:31:39.333Z,0.00
2019-05-03T02:32:39.756Z,0.00
2019-05-03T02:33:40.207Z,0.00
2019-05-03T02:34:43.591Z,0.00
2019-05-03T02:35:42.976Z,0.00
2019-05-03T02:36:42.883Z,0.00
2019-05-03T02:37:43.870Z,0.00
2019-05-03T02:38:43.113Z,0.00
2019-05-03T02:39:42.915Z,0.00
2019-05-03T02:40:43.246Z,0.00
2019-05-03T02:41:46.020Z,0.00
2019-05-03T02:42:46.435Z,0.00
2019-05-03T02:43:45.214Z,0.00
2019-05-03T02:44:46.114Z,0.00
2019-05-03T02:45:45.772Z,0.00
2019-05-03T02:46:45.709Z,0.00
2019-05-03T02:47:47.139Z,0.00
2019-05-03T02:48:46.560Z,0.00
2019-05-03T02:49:46.979Z,0.00
2019-05-03T02:50:47.413Z,0.00
2019-05-03T02:51:47.830Z,0.00
2019-05-03T02:52:48.257Z,0.00
2019-05-03T02:53:49.459Z,0.00
2019-05-03T02:54:49.121Z,0.00
2019-05-03T02:55:49.527Z,0.00
2019-05-03T02:56:49.960Z,0.00
2019-05-03T02:57:50.391Z,0.00
2019-05-03T02:58:50.816Z,0.00
2019-05-03T02:59:51.230Z,0.00
2019-05-03T03:00:51.657Z,0.00
2019-05-03T03:01:52.088Z,0.00
2019-05-03T03:02:52.512Z,0.00
2019-05-03T03:03:55.818Z,0.00
2019-05-03T03:04:56.164Z,0.00
2019-05-03T03:05:56.013Z,0.00
2019-05-03T03:06:55.614Z,0.00
2019-05-03T03:07:55.902Z,0.00
2019-05-03T03:08:56.151Z,0.00
2019-05-03T03:09:55.946Z,0.00
2019-05-03T03:10:55.908Z,0.00
2019-05-03T03:11:56.337Z,0.00
2019-05-03T03:12:56.756Z,0.00
2019-05-03T03:13:57.180Z,0.00
2019-05-03T03:14:57.608Z,0.00
2019-05-03T03:15:58.032Z,0.00
2019-05-03T03:16:58.465Z,0.00
2019-05-03T03:17:58.898Z,0.00
2019-05-03T03:18:59.306Z,0.00
2019-05-03T03:19:59.728Z,0.00
2019-05-03T03:21:00.167Z,0.00
2019-05-03T03:22:00.590Z,0.00
2019-05-03T03:23:01.015Z,0.00
2019-05-03T03:24:01.431Z,0.00
2019-05-03T03:25:01.858Z,0.00
2019-05-03T03:26:02.281Z,0.00
2019-05-03T03:27:05.158Z,0.00
2019-05-03T03:28:05.315Z,0.00
2019-05-03T03:29:05.774Z,0.00
2019-05-03T03:30:07.333Z,0.00
2019-05-03T03:31:08.350Z,5.63
2019-05-03T03:32:09.261Z,5.63
2019-05-03T03:33:08.609Z,5.63
2019-05-03T03:34:08.050Z,5.63
2019-05-03T03:35:11.622Z,5.63
2019-05-03T03:36:31.272Z,5.63
2019-05-03T03:37:10.268Z,5.63
2019-05-03T03:38:07.370Z,5.63
2019-05-03T03:39:07.804Z,5.63
2019-05-03T03:40:08.222Z,11.25
2019-05-03T03:41:08.655Z,11.25
2019-05-03T03:42:09.078Z,11.25
2019-05-03T03:43:09.498Z,11.25
2019-05-03T03:44:09.921Z,11.25
2019-05-03T03:45:10.348Z,11.25
2019-05-03T03:46:10.772Z,11.25
2019-05-03T03:47:11.195Z,16.88
2019-05-03T03:48:11.627Z,16.88
2019-05-03T03:49:12.051Z,16.88
2019-05-03T03:50:15.033Z,16.88
2019-05-03T03:51:15.370Z,16.88
2019-05-03T03:52:15.863Z,16.88
2019-05-03T03:53:15.447Z,16.88
2019-05-03T03:54:15.539Z,22.50
2019-05-03T03:55:15.943Z,22.50
2019-05-03T03:56:16.076Z,22.50
2019-05-03T03:57:15.948Z,22.50
2019-05-03T03:58:22.039Z,22.50
2019-05-03T03:59:16.295Z,22.50
2019-05-03T04:00:16.727Z,28.13
2019-05-03T04:01:17.133Z,28.13
2019-05-03T04:02:17.616Z,28.13
2019-05-03T04:03:17.986Z,28.13
2019-05-03T04:04:18.423Z,28.13
2019-05-03T04:05:18.826Z,33.75
2019-05-03T04:06:19.256Z,33.75
2019-05-03T04:07:19.677Z,33.75
2019-05-03T04:08:20.100Z,33.75
2019-05-03T04:09:20.522Z,39.38
2019-05-03T04:10:20.966Z,39.38
2019-05-03T04:11:21.378Z,39.38
2019-05-03T04:12:21.802Z,45.00
2019-05-03T04:13:25.332Z,45.00
2019-05-03T04:14:25.274Z,50.63
2019-05-03T04:15:25.751Z,50.63
2019-05-03T04:16:25.814Z,50.63
2019-05-03T04:17:26.041Z,56.25
2019-05-03T04:18:25.559Z,56.25
2019-05-03T04:19:25.204Z,61.88
2019-05-03T04:20:25.863Z,61.88
2019-05-03T04:21:25.857Z,61.88
2019-05-03T04:22:26.047Z,67.50
2019-05-03T04:23:26.765Z,67.50
2019-05-03T04:24:26.886Z,67.50
2019-05-03T04:25:27.323Z,73.13
2019-05-03T04:26:29.897Z,73.13
2019-05-03T04:27:28.157Z,73.13
2019-05-03T04:28:28.586Z,73.13
2019-05-03T04:29:29.009Z,78.75
2019-05-03T04:30:29.474Z,78.75
2019-05-03T04:31:29.853Z,78.75
2019-05-03T04:32:30.283Z,84.38
2019-05-03T04:33:30.722Z,90.00
2019-05-03T04:34:31.167Z,90.00
2019-05-03T04:35:31.552Z,90.00
2019-05-03T04:36:31.978Z,90.00
2019-05-03T04:37:32.427Z,90.00
2019-05-03T04:38:35.279Z,90.00
2019-05-03T04:39:35.640Z,90.00
2019-05-03T04:40:35.899Z,95.63
2019-05-03T04:41:35.771Z,95.63
2019-05-03T04:42:35.666Z,101.25
2019-05-03T04:43:35.749Z,101.25
2019-05-03T04:44:35.924Z,101.25
2019-05-03T04:45:36.668Z,101.25
2019-05-03T04:46:36.213Z,101.25
2019-05-03T04:47:36.734Z,106.88
2019-05-03T04:48:37.070Z,112.50
2019-05-03T04:49:37.503Z,112.50
2019-05-03T04:50:37.926Z,118.13
2019-05-03T04:51:38.422Z,123.75
2019-05-03T04:52:38.766Z,123.75
2019-05-03T04:53:39.189Z,123.75
2019-05-03T04:54:39.611Z,129.38
2019-05-03T04:55:40.042Z,129.38
2019-05-03T04:56:40.456Z,129.38
2019-05-03T04:57:45.919Z,129.38
2019-05-03T04:58:41.305Z,129.38
2019-05-03T04:59:41.763Z,135.00
2019-05-03T05:00:42.175Z,135.00
2019-05-03T05:01:42.584Z,135.00
2019-05-03T05:02:45.601Z,129.38
2019-05-03T05:03:45.662Z,129.38
2019-05-03T05:04:46.206Z,123.75
2019-05-03T05:05:45.317Z,123.75
2019-05-03T05:06:45.111Z,123.75
2019-05-03T05:07:45.821Z,123.75
2019-05-03T05:08:46.114Z,129.38
2019-05-03T05:09:45.983Z,135.00
2019-05-03T05:10:46.416Z,140.63
2019-05-03T05:11:46.837Z,146.25
2019-05-03T05:12:47.279Z,151.88
2019-05-03T05:13:47.694Z,151.88
2019-05-03T05:14:48.132Z,151.88
2019-05-03T05:15:48.536Z,146.25
2019-05-03T05:16:48.953Z,146.25
2019-05-03T05:17:49.387Z,135.00
2019-05-03T05:18:49.789Z,123.75
2019-05-03T05:19:50.329Z,118.13
2019-05-03T05:20:50.643Z,118.13
2019-05-03T05:21:51.078Z,118.13
2019-05-03T05:22:51.494Z,118.13
2019-05-03T05:23:51.929Z,118.13
2019-05-03T05:24:52.344Z,118.13
2019-05-03T05:25:54.916Z,112.50
2019-05-03T05:26:54.967Z,118.13
2019-05-03T05:27:55.425Z,118.13
2019-05-03T05:28:54.925Z,129.38
2019-05-03T05:29:55.397Z,135.00
2019-05-03T05:30:54.909Z,146.25
2019-05-03T05:31:55.326Z,146.25
2019-05-03T05:32:55.743Z,151.88
2019-05-03T05:33:56.169Z,146.25
2019-05-03T05:34:56.593Z,151.88
2019-05-03T05:35:57.014Z,151.88
2019-05-03T05:36:57.449Z,157.50
2019-05-03T05:37:57.888Z,163.13
2019-05-03T05:38:58.293Z,168.75
2019-05-03T05:39:58.718Z,168.75
2019-05-03T05:40:59.138Z,168.75
2019-05-03T05:41:59.564Z,168.75
2019-05-03T05:42:59.990Z,168.75
2019-05-03T05:44:00.415Z,174.38
2019-05-03T05:45:00.836Z,174.38
2019-05-03T05:46:01.276Z,185.63
2019-05-03T05:47:01.690Z,196.88
2019-05-03T05:48:02.124Z,202.50
2019-05-03T05:49:04.235Z,208.13
2019-05-03T05:50:04.858Z,208.13
2019-05-03T05:51:04.434Z,202.50
2019-05-03T05:52:04.991Z,185.63
2019-05-03T05:53:04.988Z,180.00
2019-05-03T05:54:05.252Z,168.75
2019-05-03T05:55:05.090Z,157.50
2019-05-03T05:56:05.518Z,163.13
2019-05-03T05:57:08.383Z,163.13
2019-05-03T05:58:08.359Z,163.13
2019-05-03T05:59:06.805Z,163.13
2019-05-03T06:00:07.220Z,180.00
2019-05-03T06:01:07.635Z,191.25
2019-05-03T06:02:08.064Z,191.25
2019-05-03T06:03:08.494Z,196.88
2019-05-03T06:04:10.117Z,196.88
2019-05-03T06:05:09.342Z,196.88
2019-05-03T06:06:09.767Z,202.50
2019-05-03T06:07:10.190Z,202.50
2019-05-03T06:08:10.618Z,208.13
2019-05-03T06:09:11.038Z,213.75
2019-05-03T06:10:14.055Z,247.50
2019-05-03T06:11:11.885Z,258.75
2019-05-03T06:12:12.311Z,281.25
2019-05-03T06:13:12.743Z,292.50
2019-05-03T06:14:15.181Z,253.13
2019-05-03T06:15:14.997Z,270.00
2019-05-03T06:16:15.496Z,292.50
2019-05-03T06:17:14.667Z,343.13
2019-05-03T06:18:14.876Z,298.13
2019-05-03T06:19:15.290Z,241.88
2019-05-03T06:20:15.712Z,298.13
2019-05-03T06:21:16.147Z,320.63
2019-05-03T06:22:16.565Z,230.63
2019-05-03T06:23:16.987Z,286.88
2019-05-03T06:24:17.416Z,382.50
2019-05-03T06:25:17.889Z,399.38
2019-05-03T06:26:18.272Z,376.88
2019-05-03T06:27:18.695Z,315.00
2019-05-03T06:28:20.948Z,416.25
2019-05-03T06:29:19.544Z,393.75
2019-05-03T06:30:19.982Z,275.63
2019-05-03T06:31:22.664Z,320.63
2019-05-03T06:32:20.821Z,376.88
2019-05-03T06:33:21.249Z,410.63
2019-05-03T06:34:21.690Z,438.75
2019-05-03T06:35:22.110Z,534.38
2019-05-03T06:36:24.251Z,556.88
2019-05-03T06:37:24.997Z,511.88
2019-05-03T06:38:24.431Z,506.25
2019-05-03T06:39:24.888Z,601.88
2019-05-03T06:40:25.254Z,731.25
2019-05-03T06:41:25.094Z,1029.38
2019-05-03T06:42:25.491Z,1119.38
2019-05-03T06:43:25.518Z,376.88
2019-05-03T06:44:28.605Z,883.13
2019-05-03T06:45:26.372Z,1485.00
2019-05-03T06:46:30.225Z,618.75
2019-05-03T06:47:28.589Z,410.63
2019-05-03T06:48:31.905Z,388.13
2019-05-03T06:49:28.098Z,270.00
2019-05-03T06:50:29.042Z,298.13
2019-05-03T06:51:28.961Z,1591.88
2019-05-03T06:52:29.532Z,2851.88
2019-05-03T06:53:29.807Z,2818.13
2019-05-03T06:54:30.298Z,2857.50
2019-05-03T06:55:30.684Z,2694.38
2019-05-03T06:56:31.111Z,309.38
2019-05-03T06:57:31.532Z,2008.13
2019-05-03T06:58:35.810Z,2199.38
2019-05-03T06:59:32.401Z,2373.75
2019-05-03T07:00:34.936Z,320.63
2019-05-03T07:01:34.488Z,736.88
2019-05-03T07:02:35.385Z,376.88
2019-05-03T07:03:35.444Z,472.50
2019-05-03T07:04:34.787Z,416.25
2019-05-03T07:05:35.496Z,326.25
2019-05-03T07:06:40.348Z,438.75
2019-05-03T07:07:35.866Z,590.63
2019-05-03T07:08:36.294Z,2542.50
2019-05-03T07:09:36.724Z,2970.00
2019-05-03T07:10:37.231Z,753.75
2019-05-03T07:11:37.589Z,405.00
2019-05-03T07:12:38.021Z,1355.63
2019-05-03T07:13:38.456Z,511.88
2019-05-03T07:14:38.887Z,421.88
2019-05-03T07:15:39.318Z,388.13
2019-05-03T07:16:39.749Z,2604.38
2019-05-03T07:17:40.207Z,1310.63
2019-05-03T07:18:40.612Z,2756.25
2019-05-03T07:19:41.041Z,556.88
2019-05-03T07:20:41.483Z,618.75
2019-05-03T07:21:41.914Z,354.38
2019-05-03T07:22:44.423Z,382.50
2019-05-03T07:23:42.772Z,461.25
2019-05-03T07:24:45.156Z,461.25
2019-05-03T07:25:44.794Z,444.38
2019-05-03T07:26:44.822Z,517.50
2019-05-03T07:27:45.266Z,444.38
2019-05-03T07:28:49.346Z,433.13
2019-05-03T07:29:45.367Z,461.25
2019-05-03T07:30:45.799Z,652.50
2019-05-03T07:31:46.227Z,360.00
2019-05-03T07:32:46.660Z,472.50
2019-05-03T07:33:47.117Z,326.25
2019-05-03T07:34:47.519Z,286.88
2019-05-03T07:35:47.956Z,303.75
2019-05-03T07:36:48.406Z,2756.25
2019-05-03T07:37:48.830Z,1113.75
2019-05-03T07:38:49.245Z,337.50
2019-05-03T07:39:49.679Z,410.63
2019-05-03T07:40:50.117Z,2621.25
2019-05-03T07:41:50.544Z,2401.88
2019-05-03T07:42:50.974Z,2148.75
2019-05-03T07:43:51.415Z,371.25
2019-05-03T07:44:51.844Z,444.38
2019-05-03T07:45:52.268Z,2508.75
2019-05-03T07:46:52.714Z,2435.63
2019-05-03T07:47:53.142Z,1946.25
2019-05-03T07:48:54.855Z,1918.13
2019-05-03T07:49:54.671Z,1198.13
2019-05-03T07:50:54.731Z,1265.63
2019-05-03T07:51:55.412Z,1479.38
2019-05-03T07:52:55.827Z,1811.25
2019-05-03T07:53:55.789Z,1063.13
2019-05-03T07:54:56.215Z,568.13
2019-05-03T07:55:56.652Z,2587.50
2019-05-03T07:56:57.092Z,489.38
2019-05-03T07:57:57.546Z,2919.38
2019-05-03T07:59:02.759Z,2058.75
2019-05-03T07:59:58.432Z,506.25
2019-05-03T08:01:06.032Z,3054.38
2019-05-03T08:01:59.297Z,3054.38
2019-05-03T08:02:59.755Z,433.13
2019-05-03T08:04:00.181Z,416.25
2019-05-03T08:05:00.622Z,528.75
2019-05-03T08:06:01.064Z,2525.63
2019-05-03T08:07:01.514Z,2840.63
2019-05-03T08:08:01.949Z,2632.50
2019-05-03T08:09:02.389Z,2508.75
2019-05-03T08:10:05.029Z,2598.75
2019-05-03T08:11:05.140Z,2745.00
2019-05-03T08:12:05.140Z,2919.38
2019-05-03T08:13:04.675Z,1513.13
2019-05-03T08:14:04.982Z,3150.00
2019-05-03T08:15:05.400Z,1912.50
2019-05-03T08:16:06.031Z,3335.63
2019-05-03T08:17:05.960Z,916.88
2019-05-03T08:18:06.404Z,438.75
2019-05-03T08:19:06.870Z,371.25
2019-05-03T08:20:07.297Z,320.63
2019-05-03T08:21:07.736Z,360.00
2019-05-03T08:22:08.172Z,393.75
2019-05-03T08:23:08.614Z,388.13
2019-05-03T08:24:09.160Z,376.88
2019-05-03T08:25:09.508Z,444.38
2019-05-03T08:26:09.986Z,461.25
2019-05-03T08:27:10.507Z,3600.00
2019-05-03T08:28:10.826Z,3622.50
2019-05-03T08:29:16.243Z,3532.50
2019-05-03T08:30:11.713Z,3431.25
2019-05-03T08:31:12.161Z,3279.38
2019-05-03T08:32:12.596Z,3200.63
2019-05-03T08:33:14.777Z,3178.13
2019-05-03T08:34:15.288Z,3200.63
2019-05-03T08:35:15.318Z,3285.00
2019-05-03T08:36:15.635Z,3453.75
2019-05-03T08:37:15.370Z,585.00
2019-05-03T08:38:15.376Z,585.00
2019-05-03T08:39:15.873Z,781.88
2019-05-03T08:40:16.180Z,1395.00
2019-05-03T08:41:16.690Z,2835.00
2019-05-03T08:42:17.059Z,388.13
2019-05-03T08:43:17.527Z,315.00
2019-05-03T08:44:17.941Z,309.38
2019-05-03T08:45:18.392Z,320.63
2019-05-03T08:46:18.834Z,354.38
2019-05-03T08:47:19.293Z,3583.13
2019-05-03T08:48:19.721Z,3751.88
2019-05-03T08:49:20.167Z,3836.25
2019-05-03T08:50:21.555Z,1192.50
2019-05-03T08:51:21.042Z,405.00
2019-05-03T08:52:21.493Z,393.75
2019-05-03T08:53:21.928Z,3588.75
2019-05-03T08:54:22.364Z,3718.13
2019-05-03T08:55:24.854Z,3780.00
2019-05-03T08:56:24.550Z,3813.75
2019-05-03T08:57:25.411Z,3796.88
2019-05-03T08:58:25.623Z,3735.00
2019-05-03T08:59:29.856Z,939.38
2019-05-03T09:00:25.057Z,601.88
2019-05-03T09:01:25.478Z,630.00
2019-05-03T09:02:25.992Z,427.50
2019-05-03T09:03:26.365Z,348.75
2019-05-03T09:04:36.119Z,343.13
2019-05-03T09:05:27.263Z,360.00
2019-05-03T09:06:27.704Z,388.13
2019-05-03T09:07:28.153Z,759.38
2019-05-03T09:08:28.588Z,1276.88
2019-05-03T09:09:29.029Z,1766.25
2019-05-03T09:10:29.478Z,2745.00
2019-05-03T09:11:34.106Z,523.13
2019-05-03T09:12:30.360Z,416.25
2019-05-03T09:13:30.800Z,399.38
2019-05-03T09:14:41.394Z,399.38
2019-05-03T09:15:31.721Z,343.13
2019-05-03T09:16:32.134Z,360.00
2019-05-03T09:17:32.571Z,399.38
2019-05-03T09:18:34.596Z,365.63
2019-05-03T09:19:34.700Z,309.38
2019-05-03T09:20:35.564Z,326.25
2019-05-03T09:21:34.797Z,371.25
2019-05-03T09:22:34.890Z,461.25
2019-05-03T09:23:35.738Z,506.25
2019-05-03T09:24:35.642Z,697.50
2019-05-03T09:25:36.082Z,3515.63
2019-05-03T09:26:36.503Z,3566.25
2019-05-03T09:27:36.986Z,3763.13
2019-05-03T09:28:37.381Z,3915.00
2019-05-03T09:29:43.141Z,4021.88
2019-05-03T09:30:38.258Z,1293.75
2019-05-03T09:31:38.698Z,4156.88
2019-05-03T09:32:39.145Z,1085.63
2019-05-03T09:33:39.606Z,1035.00
2019-05-03T09:34:40.033Z,697.50
2019-05-03T09:35:40.476Z,585.00
2019-05-03T09:36:40.913Z,483.75
2019-05-03T09:37:41.354Z,376.88
2019-05-03T09:38:41.813Z,326.25
2019-05-03T09:39:44.046Z,298.13
2019-05-03T09:40:42.687Z,303.75
2019-05-03T09:41:45.026Z,331.88
2019-05-03T09:42:44.493Z,337.50
2019-05-03T09:43:44.987Z,326.25
2019-05-03T09:44:45.090Z,433.13
2019-05-03T09:45:45.753Z,579.38
2019-05-03T09:46:45.311Z,1563.75
2019-05-03T09:47:45.767Z,1608.75
2019-05-03T09:48:46.218Z,2874.38
2019-05-03T09:49:46.628Z,2908.13
2019-05-03T09:50:47.062Z,3121.88
2019-05-03T09:51:47.505Z,3268.13
2019-05-03T09:52:47.949Z,3346.88
2019-05-03T09:53:48.387Z,3600.00
2019-05-03T09:54:48.826Z,950.63
2019-05-03T09:55:49.275Z,815.63
2019-05-03T09:56:55.905Z,821.25
2019-05-03T09:57:50.162Z,967.50
2019-05-03T09:58:50.611Z,686.25
2019-05-03T09:59:57.070Z,517.50
2019-05-03T10:00:51.538Z,405.00
2019-05-03T10:01:51.949Z,376.88
2019-05-03T10:02:54.688Z,393.75
2019-05-03T10:03:54.794Z,433.13
2019-05-03T10:04:55.270Z,489.38
2019-05-03T10:05:55.366Z,455.63
2019-05-03T10:06:54.843Z,472.50
2019-05-03T10:07:54.601Z,551.25
2019-05-03T10:08:55.035Z,2902.50
2019-05-03T10:09:55.529Z,2964.38
2019-05-03T10:10:55.913Z,3026.25
2019-05-03T10:11:56.350Z,1923.75
2019-05-03T10:12:56.782Z,759.38
2019-05-03T10:13:57.223Z,658.13
2019-05-03T10:14:57.702Z,618.75
2019-05-03T10:15:58.110Z,427.50
2019-05-03T10:16:58.556Z,393.75
2019-05-03T10:17:58.989Z,416.25
2019-05-03T10:18:59.423Z,405.00
2019-05-03T10:19:59.879Z,410.63
2019-05-03T10:21:00.301Z,523.13
2019-05-03T10:22:00.772Z,1001.25
2019-05-03T10:23:01.191Z,2992.50
2019-05-03T10:24:01.616Z,2981.25
2019-05-03T10:25:02.066Z,2655.00
2019-05-03T10:26:02.519Z,2683.13
2019-05-03T10:27:02.938Z,2491.88
2019-05-03T10:28:05.648Z,2525.63
2019-05-03T10:29:05.400Z,1991.25
2019-05-03T10:30:13.018Z,714.38
2019-05-03T10:31:07.448Z,736.88
2019-05-03T10:32:05.184Z,646.88
2019-05-03T10:33:06.072Z,804.38
2019-05-03T10:34:06.076Z,2604.38
2019-05-03T10:35:06.477Z,2019.38
2019-05-03T10:36:06.904Z,1006.88
2019-05-03T10:37:07.347Z,2283.75
2019-05-03T10:38:07.783Z,691.88
2019-05-03T10:39:08.224Z,675.00
2019-05-03T10:40:08.692Z,579.38
2019-05-03T10:41:09.103Z,534.38
2019-05-03T10:42:09.546Z,556.88
2019-05-03T10:43:09.974Z,804.38
2019-05-03T10:44:10.430Z,1113.75
2019-05-03T10:45:10.858Z,736.88
2019-05-03T10:46:11.291Z,680.63
2019-05-03T10:47:11.741Z,573.75
2019-05-03T10:48:12.180Z,483.75
2019-05-03T10:49:12.611Z,421.88
2019-05-03T10:50:13.049Z,393.75
2019-05-03T10:51:15.542Z,371.25
2019-05-03T10:52:15.031Z,348.75
2019-05-03T10:53:15.391Z,337.50
2019-05-03T10:54:14.799Z,360.00
2019-05-03T10:55:15.927Z,500.63
2019-05-03T10:56:22.736Z,855.00
2019-05-03T10:57:16.142Z,2812.50
2019-05-03T10:58:16.522Z,2700.00
2019-05-03T10:59:16.960Z,753.75
2019-05-03T11:00:42.447Z,686.25
2019-05-03T11:01:17.828Z,573.75
2019-05-03T11:02:18.311Z,472.50
2019-05-03T11:03:18.702Z,393.75
2019-05-03T11:04:19.141Z,365.63
2019-05-03T11:05:19.593Z,371.25
2019-05-03T11:06:20.017Z,410.63
2019-05-03T11:07:20.444Z,438.75
2019-05-03T11:08:20.899Z,551.25
2019-05-03T11:09:21.323Z,2936.25
2019-05-03T11:10:21.757Z,3116.25
2019-05-03T11:11:22.177Z,2947.50
2019-05-03T11:12:22.636Z,2548.13
2019-05-03T11:13:23.071Z,703.13
2019-05-03T11:14:25.409Z,635.63
2019-05-03T11:15:25.928Z,528.75
2019-05-03T11:16:25.497Z,405.00
2019-05-03T11:17:25.635Z,320.63
2019-05-03T11:18:25.337Z,264.38
2019-05-03T11:19:25.673Z,230.63
2019-05-03T11:20:29.073Z,219.38
2019-05-03T11:21:28.843Z,230.63
2019-05-03T11:22:26.976Z,270.00
2019-05-03T11:23:27.421Z,309.38
2019-05-03T11:24:27.851Z,360.00
2019-05-03T11:25:28.291Z,900.00
2019-05-03T11:26:28.747Z,770.63
2019-05-03T11:27:29.160Z,2846.25
2019-05-03T11:28:29.588Z,3166.88
2019-05-03T11:29:30.034Z,2896.88
2019-05-03T11:30:30.473Z,2840.63
2019-05-03T11:31:30.900Z,2964.38
2019-05-03T11:32:31.334Z,2773.13
2019-05-03T11:33:31.773Z,1096.88
2019-05-03T11:34:32.219Z,1749.38
2019-05-03T11:35:32.647Z,826.88
2019-05-03T11:36:34.779Z,675.00
2019-05-03T11:37:34.668Z,652.50
2019-05-03T11:38:34.993Z,528.75
2019-05-03T11:39:34.498Z,450.00
2019-05-03T11:40:35.553Z,399.38
2019-05-03T11:41:35.798Z,450.00
2019-05-03T11:42:35.723Z,371.25
2019-05-03T11:43:36.157Z,303.75
2019-05-03T11:44:36.625Z,275.63
2019-05-03T11:45:37.034Z,264.38
2019-05-03T11:46:37.471Z,247.50
2019-05-03T11:47:37.913Z,230.63
2019-05-03T11:48:38.352Z,219.38
2019-05-03T11:49:38.778Z,225.00
2019-05-03T11:50:39.247Z,241.88
2019-05-03T11:51:39.645Z,281.25
2019-05-03T11:52:40.086Z,326.25
2019-05-03T11:53:40.516Z,326.25
2019-05-03T11:54:40.954Z,326.25
2019-05-03T11:55:41.389Z,320.63
2019-05-03T11:56:41.813Z,320.63
2019-05-03T11:57:42.247Z,348.75
2019-05-03T11:58:42.674Z,399.38
2019-05-03T11:59:45.240Z,427.50
2019-05-03T12:00:45.091Z,444.38
2019-05-03T12:01:44.878Z,466.88
2019-05-03T12:02:44.868Z,450.00
2019-05-03T12:03:45.260Z,410.63
2019-05-03T12:04:45.952Z,399.38
2019-05-03T12:05:45.709Z,399.38
2019-05-03T12:06:46.142Z,438.75
2019-05-03T12:07:46.570Z,540.00
2019-05-03T12:08:46.995Z,601.88
2019-05-03T12:09:47.450Z,652.50
2019-05-03T12:10:57.281Z,562.50
2019-05-03T12:11:48.300Z,478.13
2019-05-03T12:12:48.729Z,438.75
2019-05-03T12:14:01.779Z,399.38
2019-05-03T12:14:49.591Z,365.63
2019-05-03T12:15:50.021Z,343.13
2019-05-03T12:17:55.079Z,371.25
2019-05-03T12:18:54.032Z,416.25
2019-05-03T12:19:52.849Z,444.38
2019-05-03T12:20:52.808Z,466.88
2019-05-03T12:21:53.102Z,466.88
2019-05-03T12:22:53.575Z,495.00
2019-05-03T12:23:56.149Z,618.75
2019-05-03T12:24:54.563Z,646.88
2019-05-03T12:25:54.820Z,613.13
2019-05-03T12:26:55.797Z,568.13
2019-05-03T12:27:55.211Z,545.63
2019-05-03T12:28:55.650Z,528.75
2019-05-03T12:29:56.100Z,511.88
2019-05-03T12:30:56.534Z,517.50
2019-05-03T12:31:56.945Z,500.63
2019-05-03T12:32:57.361Z,489.38
2019-05-03T12:33:57.818Z,472.50
2019-05-03T12:34:58.250Z,472.50
2019-05-03T12:35:58.713Z,433.13
2019-05-03T12:36:59.131Z,410.63
2019-05-03T12:37:59.537Z,376.88
2019-05-03T12:38:59.987Z,382.50
2019-05-03T12:40:00.391Z,421.88
2019-05-03T12:41:00.838Z,388.13
2019-05-03T12:42:01.286Z,360.00
2019-05-03T12:43:01.706Z,337.50
2019-05-03T12:44:04.502Z,303.75
2019-05-03T12:45:04.441Z,320.63
2019-05-03T12:46:04.952Z,337.50
2019-05-03T12:47:05.657Z,337.50